createdAt,value
2022-12-26T00:00:32.606Z,3.90
2022-12-26T00:02:59.737Z,2.83
2022-12-26T00:05:26.850Z,3.03
2022-12-26T00:07:53.768Z,3.55
2022-12-26T00:10:20.791Z,3.08
2022-12-26T00:12:47.696Z,3.22
2022-12-26T00:15:14.616Z,5.18
2022-12-26T00:17:41.586Z,3.55
2022-12-26T00:20:09.101Z,5.32
2022-12-26T00:22:36.027Z,5.07
2022-12-26T00:25:03.034Z,4.57
2022-12-26T00:27:30.350Z,4.68
2022-12-26T00:29:57.335Z,7.43
2022-12-26T00:32:24.268Z,5.18
2022-12-26T00:34:51.178Z,4.60
2022-12-26T00:37:18.107Z,8.00
2022-12-26T00:39:45.014Z,4.03
2022-12-26T00:42:11.978Z,4.97
2022-12-26T00:44:38.879Z,4.53
2022-12-26T00:47:06.025Z,5.32
2022-12-26T00:50:14.073Z,5.55
2022-12-26T00:52:20.094Z,5.10
2022-12-26T00:54:47.099Z,6.93
2022-12-26T00:57:14.141Z,6.57
2022-12-26T00:59:44.081Z,5.53
2022-12-26T01:02:31.119Z,4.65
2022-12-26T01:04:58.190Z,4.82
2022-12-26T01:07:25.957Z,8.65
2022-12-26T01:09:52.938Z,4.22
2022-12-26T01:12:19.883Z,4.15
2022-12-26T01:14:46.852Z,4.40
2022-12-26T01:17:13.816Z,4.25
2022-12-26T01:19:40.741Z,4.00
2022-12-26T01:22:07.671Z,3.50
2022-12-26T01:24:34.592Z,4.30
2022-12-26T01:27:01.610Z,5.88
2022-12-26T01:29:28.529Z,3.10
2022-12-26T01:31:55.547Z,3.88
2022-12-26T01:34:22.630Z,3.38
2022-12-26T01:36:49.589Z,3.28
2022-12-26T01:39:16.504Z,3.92
2022-12-26T01:41:43.440Z,3.35
2022-12-26T01:44:48.019Z,3.15
2022-12-26T01:47:15.850Z,4.90
2022-12-26T01:49:47.610Z,2.80
2022-12-26T01:52:20.091Z,2.50
2022-12-26T01:54:50.446Z,2.58
2022-12-26T01:57:22.266Z,2.70
2022-12-26T01:59:51.593Z,3.58
2022-12-26T02:02:20.799Z,2.83
2022-12-26T02:05:09.484Z,2.13
2022-12-26T02:07:40.672Z,2.47
2022-12-26T02:10:13.798Z,3.65
2022-12-26T02:12:41.254Z,2.97
2022-12-26T02:15:13.186Z,3.55
2022-12-26T02:17:42.663Z,2.60
2022-12-26T02:20:32.855Z,2.33
2022-12-26T02:23:31.829Z,2.00
2022-12-26T02:26:23.847Z,2.33
2022-12-26T02:28:56.334Z,2.40
2022-12-26T02:31:31.275Z,2.20
2022-12-26T02:34:07.380Z,1.80
2022-12-26T02:37:00.539Z,2.88
2022-12-26T02:40:03.399Z,1.63
2022-12-26T02:42:42.239Z,1.92
2022-12-26T02:45:44.745Z,1.70
2022-12-26T02:48:18.131Z,1.60
2022-12-26T02:51:14.692Z,1.50
2022-12-26T02:54:54.663Z,1.60
2022-12-26T02:57:52.067Z,1.40
2022-12-26T03:00:39.924Z,1.70
2022-12-26T03:03:38.968Z,1.80
2022-12-26T03:06:27.376Z,1.60
2022-12-26T03:09:20.698Z,1.50
2022-12-26T03:12:14.231Z,1.88
2022-12-26T03:15:13.487Z,2.70
2022-12-26T03:17:48.465Z,1.92
2022-12-26T03:20:24.723Z,1.77
2022-12-26T03:23:08.200Z,1.55
2022-12-26T03:26:16.366Z,2.10
2022-12-26T03:28:44.207Z,3.13
2022-12-26T03:31:13.716Z,1.85
2022-12-26T03:34:02.700Z,4.28
2022-12-26T03:36:35.997Z,3.10
2022-12-26T03:39:08.898Z,1.50
2022-12-26T03:42:26.917Z,2.00
2022-12-26T03:45:38.504Z,2.13
2022-12-26T03:48:48.270Z,1.88
2022-12-26T03:51:49.935Z,1.50
2022-12-26T03:54:43.403Z,1.70
2022-12-26T03:57:36.609Z,1.88
2022-12-26T04:00:31.375Z,3.35
2022-12-26T04:03:24.164Z,1.50
2022-12-26T04:06:12.116Z,1.50
2022-12-26T04:09:09.765Z,3.08
2022-12-26T04:11:58.277Z,1.08
2022-12-26T04:14:43.935Z,1.60
2022-12-26T04:17:52.545Z,1.88
2022-12-26T04:21:03.731Z,1.60
2022-12-26T04:24:04.803Z,1.50
2022-12-26T04:39:48.408Z,1.10
2022-12-26T04:42:36.453Z,1.63
2022-12-26T04:45:05.488Z,1.10
2022-12-26T04:47:33.011Z,1.30
2022-12-26T04:50:13.477Z,1.30
2022-12-26T04:53:00.580Z,1.23
2022-12-26T04:55:30.484Z,1.42
2022-12-26T04:57:57.937Z,1.08
2022-12-26T05:00:27.998Z,1.35
2022-12-26T05:03:18.956Z,1.60
2022-12-26T05:06:08.040Z,4.65
2022-12-26T05:08:56.829Z,1.00
2022-12-26T05:11:24.884Z,0.88
2022-12-26T05:13:53.429Z,1.38
2022-12-26T05:16:39.445Z,1.08
2022-12-26T05:19:25.331Z,1.08
2022-12-26T05:22:10.856Z,2.88
2022-12-26T05:24:59.676Z,1.20
2022-12-26T05:27:53.830Z,0.80
2022-12-26T05:30:21.092Z,0.95
2022-12-26T05:33:06.339Z,1.00
2022-12-26T05:35:34.454Z,0.93
2022-12-26T05:38:02.388Z,0.90
2022-12-26T05:40:29.374Z,1.10
2022-12-26T05:42:56.434Z,0.77
2022-12-26T05:45:24.671Z,2.25
2022-12-26T05:47:58.424Z,1.00
2022-12-26T05:50:25.451Z,0.73
2022-12-26T05:52:52.541Z,1.80
2022-12-26T05:55:19.946Z,1.13
2022-12-26T05:57:46.905Z,0.85
2022-12-26T06:00:14.472Z,0.95
2022-12-26T06:02:41.477Z,0.80
2022-12-26T06:05:08.943Z,0.80
2022-12-26T06:07:35.978Z,0.90
2022-12-26T06:10:03.814Z,0.90
2022-12-26T06:12:31.316Z,1.00
2022-12-26T06:14:58.255Z,1.17
2022-12-26T06:17:25.242Z,1.17
2022-12-26T06:19:52.250Z,1.23
2022-12-26T06:22:19.224Z,3.40
2022-12-26T06:24:46.274Z,1.00
2022-12-26T06:27:13.194Z,1.05
2022-12-26T06:29:40.186Z,1.23
2022-12-26T06:32:07.109Z,0.70
2022-12-26T06:34:34.075Z,0.70
2022-12-26T06:37:01.076Z,0.85
2022-12-26T06:39:28.048Z,3.72
2022-12-26T06:41:55.178Z,1.58
2022-12-26T06:44:23.014Z,1.20
2022-12-26T06:46:50.028Z,0.85
2022-12-26T06:49:17.173Z,0.98
2022-12-26T06:51:46.848Z,0.80
2022-12-26T06:54:13.832Z,1.55
2022-12-26T06:56:40.890Z,0.90
2022-12-26T06:59:07.875Z,1.13
2022-12-26T07:01:35.519Z,4.10
2022-12-26T07:04:04.349Z,1.50
2022-12-26T07:06:37.652Z,1.02
2022-12-26T07:09:07.475Z,0.80
2022-12-26T07:11:37.562Z,0.70
2022-12-26T07:14:05.026Z,1.50
2022-12-26T07:16:37.770Z,2.05
2022-12-26T07:19:05.604Z,2.05
2022-12-26T07:21:39.845Z,1.70
2022-12-26T07:24:13.628Z,1.40
2022-12-26T07:26:41.837Z,1.85
2022-12-26T07:29:12.053Z,1.63
2022-12-26T07:31:39.611Z,2.25
2022-12-26T07:34:06.805Z,1.17
2022-12-26T07:36:33.880Z,0.82
2022-12-26T07:39:00.785Z,0.80
2022-12-26T07:41:47.354Z,1.80
2022-12-26T07:44:14.986Z,2.70
2022-12-26T07:46:42.089Z,1.23
2022-12-26T07:49:12.058Z,0.88
2022-12-26T07:51:39.101Z,2.35
2022-12-26T07:54:10.907Z,0.95
2022-12-26T07:56:38.286Z,1.10
2022-12-26T07:59:05.614Z,1.85
2022-12-26T08:01:33.055Z,1.90
2022-12-26T08:04:00.423Z,0.70
2022-12-26T08:06:28.109Z,2.63
2022-12-26T08:08:55.155Z,1.15
2022-12-26T08:11:23.921Z,2.15
2022-12-26T08:13:52.163Z,1.98
2022-12-26T08:16:19.435Z,2.75
2022-12-26T08:18:46.827Z,2.70
2022-12-26T08:21:14.018Z,1.48
2022-12-26T08:23:41.026Z,5.70
2022-12-26T08:26:10.417Z,5.38
2022-12-26T08:28:37.425Z,0.90
2022-12-26T08:31:09.297Z,1.25
2022-12-26T08:33:36.707Z,1.75
2022-12-26T08:36:05.361Z,1.10
2022-12-26T08:38:34.055Z,1.27
2022-12-26T08:41:02.053Z,1.40
2022-12-26T08:46:16.848Z,1.70
2022-12-26T08:48:44.777Z,2.03
2022-12-26T08:51:15.183Z,2.03
2022-12-26T08:53:42.748Z,1.15
2022-12-26T08:56:14.325Z,2.75
2022-12-26T08:58:45.714Z,2.90
2022-12-26T09:01:14.285Z,1.23
2022-12-26T09:03:42.381Z,1.30
2022-12-26T09:06:10.752Z,2.45
2022-12-26T09:08:39.037Z,1.80
2022-12-26T09:11:08.098Z,1.83
2022-12-26T09:13:35.672Z,1.60
2022-12-26T09:16:17.949Z,4.40
2022-12-26T09:18:46.302Z,0.98
2022-12-26T09:21:15.902Z,1.38
2022-12-26T09:23:43.393Z,3.83
2022-12-26T09:26:14.415Z,1.98
2022-12-26T09:28:42.267Z,3.72
2022-12-26T09:31:18.416Z,2.40
2022-12-26T09:33:47.263Z,1.40
2022-12-26T09:36:20.401Z,3.95
2022-12-26T09:38:48.905Z,1.98
2022-12-26T09:41:40.606Z,3.38
2022-12-26T09:44:31.082Z,1.10
2022-12-26T09:47:30.475Z,4.97
2022-12-26T09:50:14.638Z,1.33
2022-12-26T09:52:52.430Z,2.22
2022-12-26T09:55:29.665Z,3.38
2022-12-26T09:58:01.397Z,2.17
2022-12-26T10:00:42.013Z,2.75
2022-12-26T10:03:10.891Z,2.25
2022-12-26T10:06:14.687Z,3.83
2022-12-26T10:09:02.852Z,0.88
2022-12-26T10:12:00.589Z,3.65
2022-12-26T10:14:48.829Z,3.78
2022-12-26T10:17:39.680Z,2.85
2022-12-26T10:20:18.130Z,3.53
2022-12-26T10:23:03.865Z,2.42
2022-12-26T10:25:48.416Z,1.70
2022-12-26T10:28:36.283Z,2.67
2022-12-26T10:31:10.070Z,3.22
2022-12-26T10:33:54.361Z,4.43
2022-12-26T10:36:35.281Z,1.17
2022-12-26T10:39:12.025Z,4.28
2022-12-26T10:41:45.282Z,3.08
2022-12-26T10:44:14.937Z,5.45
2022-12-26T10:46:55.615Z,1.58
2022-12-26T10:49:25.828Z,3.38
2022-12-26T10:51:55.391Z,3.58
2022-12-26T10:54:22.631Z,4.57
2022-12-26T10:56:51.987Z,5.00
2022-12-26T10:59:22.733Z,3.78
2022-12-26T11:01:50.467Z,4.63
2022-12-26T11:04:44.463Z,3.35
2022-12-26T11:07:12.232Z,6.15
2022-12-26T11:09:45.720Z,2.63
2022-12-26T11:12:21.793Z,10.40
2022-12-26T11:14:49.028Z,4.20
2022-12-26T11:17:31.941Z,2.45
2022-12-26T11:20:17.403Z,3.00
2022-12-26T11:22:45.892Z,5.03
2022-12-26T11:25:21.096Z,3.55
2022-12-26T11:27:59.430Z,3.85
2022-12-26T11:30:34.661Z,9.15
2022-12-26T11:33:14.799Z,5.65
2022-12-26T11:35:51.829Z,3.00
2022-12-26T11:38:42.549Z,3.65
2022-12-26T11:41:32.709Z,5.95
2022-12-26T11:44:14.214Z,5.88
2022-12-26T11:46:49.926Z,5.28
2022-12-26T11:49:53.934Z,2.53
2022-12-26T11:52:33.919Z,2.17
2022-12-26T11:55:01.481Z,4.72
2022-12-26T11:57:33.626Z,2.72
2022-12-26T12:00:22.180Z,4.35
2022-12-26T12:02:49.528Z,3.47
2022-12-26T12:05:42.677Z,4.68
2022-12-26T12:08:15.345Z,4.53
2022-12-26T12:10:48.676Z,2.67
2022-12-26T12:13:39.632Z,5.60
2022-12-26T12:16:21.420Z,3.00
2022-12-26T12:19:11.708Z,3.50
2022-12-26T12:22:09.646Z,2.72
2022-12-26T12:25:06.390Z,3.40
2022-12-26T12:28:11.296Z,4.30
2022-12-26T12:31:17.505Z,4.95
2022-12-26T12:34:02.250Z,5.18
2022-12-26T12:36:53.452Z,2.50
2022-12-26T12:39:59.437Z,3.13
2022-12-26T12:45:34.474Z,21.05
2022-12-26T12:48:34.215Z,10.70
2022-12-26T12:51:31.692Z,7.93
2022-12-26T12:54:07.965Z,6.47
2022-12-26T12:56:52.585Z,10.90
2022-12-26T12:59:56.115Z,9.23
2022-12-26T13:02:56.706Z,13.23
2022-12-26T13:05:50.676Z,9.38
2022-12-26T13:08:42.462Z,11.15
2022-12-26T13:11:25.932Z,9.68
2022-12-26T13:14:22.426Z,7.63
2022-12-26T13:17:15.859Z,6.68
2022-12-26T13:20:05.876Z,5.80
2022-12-26T13:23:02.035Z,7.00
2022-12-26T13:25:35.943Z,9.68
2022-12-26T13:28:11.676Z,8.88
2022-12-26T13:30:39.717Z,4.32
2022-12-26T13:33:12.026Z,5.80
2022-12-26T13:35:56.174Z,7.22
2022-12-26T13:38:25.272Z,7.80
2022-12-26T13:41:21.255Z,8.68
2022-12-26T13:44:20.735Z,6.85
2022-12-26T13:46:47.640Z,4.85
2022-12-26T13:49:38.044Z,7.07
2022-12-26T13:52:10.927Z,5.25
2022-12-26T13:54:50.485Z,5.90
2022-12-26T13:57:37.803Z,7.78
2022-12-26T14:00:10.073Z,6.63
2022-12-26T14:03:17.308Z,8.13
2022-12-26T14:06:03.711Z,6.30
2022-12-26T14:09:17.544Z,4.82
2022-12-26T14:11:56.205Z,8.60
2022-12-26T14:15:13.781Z,6.35
2022-12-26T14:18:05.486Z,6.30
2022-12-26T14:20:56.206Z,3.15
2022-12-26T14:23:42.816Z,6.30
2022-12-26T14:26:58.010Z,6.32
2022-12-26T14:29:43.799Z,7.53
2022-12-26T14:32:23.300Z,5.10
2022-12-26T14:35:02.302Z,8.00
2022-12-26T14:38:00.552Z,7.95
2022-12-26T14:40:30.819Z,5.88
2022-12-26T14:43:13.826Z,9.07
2022-12-26T14:45:44.549Z,9.80
2022-12-26T14:48:31.804Z,6.88
2022-12-26T14:51:14.949Z,6.05
2022-12-26T14:53:44.921Z,13.35
2022-12-26T14:56:18.129Z,9.95
2022-12-26T14:58:49.407Z,7.47
2022-12-26T15:01:17.770Z,10.25
2022-12-26T15:04:38.758Z,8.32
2022-12-26T15:07:31.124Z,25.77
2022-12-26T15:10:33.711Z,4.63
2022-12-26T15:13:03.823Z,8.15
2022-12-26T15:15:50.964Z,9.32
2022-12-26T15:18:27.107Z,8.45
2022-12-26T15:21:18.419Z,5.63
2022-12-26T15:24:12.558Z,10.32
2022-12-26T15:26:53.949Z,8.48
2022-12-26T15:29:35.870Z,7.75
2022-12-26T15:32:15.993Z,7.25
2022-12-26T15:35:07.426Z,6.32
2022-12-26T15:37:55.026Z,6.13
2022-12-26T15:40:27.316Z,8.48
2022-12-26T15:43:31.427Z,11.63
2022-12-26T15:46:22.197Z,10.90
2022-12-26T15:48:58.505Z,10.00
2022-12-26T15:51:56.671Z,2.40
2022-12-26T15:54:42.595Z,6.03
2022-12-26T15:57:18.172Z,7.63
2022-12-26T16:00:13.146Z,7.95
2022-12-26T16:03:00.360Z,6.28
2022-12-26T16:05:45.845Z,7.90
2022-12-26T16:08:30.636Z,6.28
2022-12-26T16:11:14.789Z,9.90
2022-12-26T16:13:55.613Z,7.05
2022-12-26T16:16:37.997Z,8.75
2022-12-26T16:19:22.975Z,9.70
2022-12-26T16:22:46.916Z,6.78
2022-12-26T16:25:21.685Z,11.27
2022-12-26T16:27:52.546Z,10.93
2022-12-26T16:30:23.062Z,7.15
2022-12-26T16:32:51.280Z,9.85
2022-12-26T16:35:25.522Z,11.15
2022-12-26T16:37:55.209Z,11.45
2022-12-26T16:40:30.551Z,12.38
2022-12-26T16:43:14.171Z,12.02
2022-12-26T16:45:43.769Z,9.00
2022-12-26T16:48:15.833Z,7.25
2022-12-26T16:50:52.970Z,8.55
2022-12-26T16:53:23.365Z,11.63
2022-12-26T16:56:12.923Z,10.32
2022-12-26T16:58:40.328Z,10.57
2022-12-26T17:01:16.848Z,11.85
2022-12-26T17:04:00.297Z,8.32
2022-12-26T17:06:38.813Z,12.70
2022-12-26T17:09:17.173Z,9.75
2022-12-26T17:11:54.825Z,11.90
2022-12-26T17:14:29.983Z,5.53
2022-12-26T17:17:06.396Z,4.90
2022-12-26T17:19:36.509Z,5.90
2022-12-26T17:22:31.777Z,15.90
2022-12-26T17:25:34.415Z,18.92
2022-12-26T17:28:11.139Z,14.85
2022-12-26T17:30:48.634Z,11.85
2022-12-26T17:33:20.605Z,13.27
2022-12-26T17:38:44.707Z,6.47
2022-12-26T17:41:18.447Z,9.82
2022-12-26T17:43:46.592Z,7.93
2022-12-26T17:46:16.349Z,9.23
2022-12-26T17:48:44.473Z,11.05
2022-12-26T17:51:20.621Z,10.15
2022-12-26T17:53:51.654Z,8.38
2022-12-26T17:56:28.254Z,7.75
2022-12-26T17:58:55.651Z,7.35
2022-12-26T18:01:25.866Z,9.18
2022-12-26T18:03:53.099Z,13.80
2022-12-26T18:06:21.982Z,15.18
2022-12-26T18:08:49.135Z,10.30
2022-12-26T18:11:17.165Z,9.48
2022-12-26T18:13:44.438Z,9.88
2022-12-26T18:16:16.654Z,7.70
2022-12-26T18:18:45.535Z,7.28
2022-12-26T18:21:15.272Z,13.48
2022-12-26T18:23:42.511Z,7.57
2022-12-26T18:26:18.985Z,10.13
2022-12-26T18:28:47.719Z,7.68
2022-12-26T18:31:16.603Z,5.15
2022-12-26T18:33:43.742Z,8.15
2022-12-26T18:36:12.987Z,12.00
2022-12-26T18:38:41.856Z,10.00
2022-12-26T18:41:18.533Z,5.03
2022-12-26T18:43:58.021Z,10.75
2022-12-26T18:46:27.303Z,8.25
2022-12-26T18:48:56.777Z,8.30
2022-12-26T18:51:25.301Z,8.30
2022-12-26T18:53:52.552Z,8.68
2022-12-26T18:56:21.537Z,7.43
2022-12-26T18:58:55.495Z,6.70
2022-12-26T19:01:25.786Z,5.32
2022-12-26T19:03:53.920Z,6.90
2022-12-26T19:06:27.557Z,7.53
2022-12-26T19:08:55.050Z,17.23
2022-12-26T19:11:22.221Z,5.45
2022-12-26T19:13:49.200Z,9.90
2022-12-26T19:16:17.064Z,14.35
2022-12-26T19:18:45.831Z,6.57
2022-12-26T19:21:14.327Z,7.85
2022-12-26T19:23:46.487Z,5.15
2022-12-26T19:26:16.009Z,7.15
2022-12-26T19:28:43.355Z,7.93
2022-12-26T19:31:15.209Z,8.25
2022-12-26T19:33:42.209Z,7.45
2022-12-26T19:36:09.420Z,5.38
2022-12-26T19:38:36.569Z,7.93
2022-12-26T19:41:04.579Z,5.38
2022-12-26T19:43:31.917Z,6.28
2022-12-26T19:46:04.319Z,5.50
2022-12-26T19:48:33.130Z,9.27
2022-12-26T19:51:05.244Z,4.93
2022-12-26T19:53:32.721Z,7.38
2022-12-26T19:55:59.685Z,14.90
2022-12-26T19:58:30.370Z,6.35
2022-12-26T20:01:12.454Z,7.30
2022-12-26T20:03:41.130Z,7.43
2022-12-26T20:06:13.623Z,8.13
2022-12-26T20:08:42.173Z,4.78
2022-12-26T20:11:15.839Z,5.43
2022-12-26T20:13:43.975Z,10.15
2022-12-26T20:16:45.779Z,8.35
2022-12-26T20:19:02.558Z,4.60
2022-12-26T20:21:29.562Z,11.55
2022-12-26T20:24:00.800Z,7.55
2022-12-26T20:26:29.036Z,6.20
2022-12-26T20:29:01.321Z,7.45
2022-12-26T20:31:30.423Z,6.35
2022-12-26T20:33:58.849Z,6.60
2022-12-26T20:36:28.928Z,8.02
2022-12-26T20:38:58.786Z,9.77
2022-12-26T20:41:27.674Z,5.15
2022-12-26T20:43:56.043Z,8.32
2022-12-26T20:46:28.415Z,6.60
2022-12-26T20:48:59.327Z,6.55
2022-12-26T20:51:36.539Z,6.90
2022-12-26T20:54:10.108Z,4.40
2022-12-26T20:56:41.187Z,6.43
2022-12-26T20:59:09.296Z,6.43
2022-12-26T21:01:40.036Z,6.72
2022-12-26T21:04:11.194Z,6.80
2022-12-26T21:06:39.790Z,8.27
2022-12-26T21:09:07.428Z,7.95
2022-12-26T21:11:39.049Z,6.60
2022-12-26T21:14:13.311Z,8.23
2022-12-26T21:17:00.602Z,7.15
2022-12-26T21:19:29.793Z,10.50
2022-12-26T21:21:56.954Z,9.10
2022-12-26T21:24:32.981Z,10.85
2022-12-26T21:27:00.559Z,9.63
2022-12-26T21:29:33.239Z,8.40
2022-12-26T21:32:02.545Z,5.28
2022-12-26T21:34:32.200Z,4.57
2022-12-26T21:37:19.017Z,7.47
2022-12-26T21:39:47.474Z,10.63
2022-12-26T21:42:14.959Z,8.88
2022-12-26T21:44:42.200Z,8.02
2022-12-26T21:47:09.257Z,10.05
2022-12-26T21:49:36.911Z,7.80
2022-12-26T21:52:05.601Z,7.75
2022-12-26T21:54:51.477Z,6.70
2022-12-26T21:57:19.340Z,7.75
2022-12-26T21:59:59.177Z,6.95
2022-12-26T22:02:57.185Z,7.28
2022-12-26T22:05:27.653Z,6.90
2022-12-26T22:07:56.983Z,7.68
2022-12-26T22:10:51.184Z,8.93
2022-12-26T22:13:19.518Z,7.15
2022-12-26T22:16:03.839Z,5.50
2022-12-26T22:18:33.547Z,7.55
2022-12-26T22:21:02.844Z,7.50
2022-12-26T22:23:29.903Z,5.55
2022-12-26T22:25:57.047Z,4.47
2022-12-26T22:28:24.876Z,5.68
2022-12-26T22:30:52.014Z,5.60
2022-12-26T22:33:20.211Z,5.32
2022-12-26T22:35:47.344Z,3.95
2022-12-26T22:38:14.933Z,7.63
2022-12-26T22:40:42.591Z,6.00
2022-12-26T22:43:09.694Z,4.10
2022-12-26T22:45:41.287Z,3.67
2022-12-26T22:48:08.229Z,4.43
2022-12-26T22:50:35.244Z,7.18
2022-12-26T22:53:02.488Z,4.25
2022-12-26T22:55:29.418Z,7.35
2022-12-26T22:58:00.677Z,4.43
2022-12-26T23:00:29.325Z,7.30
2022-12-26T23:02:56.403Z,4.72
2022-12-26T23:05:23.828Z,5.28
2022-12-26T23:07:50.952Z,5.65
2022-12-26T23:10:22.245Z,4.80
2022-12-26T23:12:50.146Z,5.95
2022-12-26T23:15:24.706Z,5.30
2022-12-26T23:18:15.371Z,3.75
2022-12-26T23:21:01.102Z,3.75
2022-12-26T23:23:28.370Z,6.82
2022-12-26T23:25:58.368Z,3.85
2022-12-26T23:28:43.683Z,5.57
2022-12-26T23:31:10.809Z,6.00
2022-12-26T23:33:37.800Z,7.78
2022-12-26T23:36:05.048Z,4.90
2022-12-26T23:38:31.982Z,3.20
2022-12-26T23:40:59.086Z,4.95
2022-12-26T23:43:26.107Z,4.25
2022-12-26T23:45:53.011Z,5.78
2022-12-26T23:48:19.967Z,5.13
2022-12-26T23:50:47.030Z,6.13
2022-12-26T23:53:13.984Z,6.90
2022-12-26T23:55:42.598Z,4.28
2022-12-26T23:58:09.685Z,4.63
